METAR AND TAF INFORMATION
METAR FOR SBQV
ADDS - METARS form results

(0924 UTC 24 July 2019)
Data provider http://aviationweather.gov/metar/data/
 
METAR text: SBQV 240900Z 14008KT 9999 SCT006 14/13 Q1023
Conditions at: SBQV (VITORIA DA CONQU, BR) observed 0900 UTC 24 July 2019
Temperature: 14.0°C (57°F)
Dewpoint: 13.0°C (55°F) [RH = 94%]
Pressure (altimeter): 30.21 inches Hg (1023.0 mb)
Winds: from the SE (140 degrees) at 9 MPH (8 knots; 4.1 m/s)
Visibility: 6 or more miles (10+ km)
Ceiling: at least 12,000 feet AGL
Clouds: scattered clouds at 600 feet AGL
Weather: no significant weather observed at this time

 AIRPORT MAP

 RUNWAY INFORMATION
Runway 15 Runway length 5823 ft Runway width 98 ft
Runway elevation 0 ft Runway displaced threshold 0 ft Runway heading 0
Runway 33 Runway length 5823 ft Runway width 98 ft
Runway elevation 0 ft Runway displaced threshold 0 ft Runway heading 0

 AIRPORT FREQUENCIES
Type AFIS Name RDO Frequency 130.3 MHZ

 AIRPORT NEAR NAVIGATION AIDS
Type NDB Name Conquista Frequency 260 KHZ



Powered by Virtual Airlines Manager [v2.6.2]